PWSweather.com
Personal Weather Stations
Station Observations
SONYA
Sergiev PosadRU

Sergiev PosadRU

Lat: 56.28148651, Lon: 38.05462646

Elevation: 741

Station Type: Fine offset WH1091

Latest ConditionsUpdated 6:25:00 PM GMT+03:03 Friday, Sep 22, 2017
Currently Today's Max Today's Min Today's Average
Temperature 50.9°F10.5°C 63.7°F17.6°C 43.0°F6.1°C 51.3°F10.7°C
Dew Point 44.1°F6.7°C 46.6°F8.1°C 41.5°F5.3°C 43.7°F6.5°C
Winds 0.7 mph NE1.1 kmh NE 9.2 mph S14.8 kmh S - 3.0 mph 4.8 kmh
Wind Gusts 1.6 mph2.6 kmh 13.0 mph20.9 kmh - -
Humidity 71% 98% 38% 72%
Pressure 29.78 in1008.5 mb 29.81 in1009.5 mb 29.73 in1006.8 mb -
Hour Temp Dew Point Humidity Winds Wind Gusts Pressure Precip Precip Rate Daily Precip Total
06:25 PM 50.9°F10.5°C 44.1°F6.7°C 71% 0.7 mph NE1.1 kmh NE 1.6 mph2.6 kmh 29.78 in1008.5 mb 0.00 in0.0 mm 0.00 in0.0 mm 0.00 in0.0 mm
06:20 PM 50.9°F10.5°C 44.1°F6.7°C 71% 0.7 mph NE1.1 kmh NE 1.6 mph2.6 kmh 29.78 in1008.5 mb 0.00 in0.0 mm 0.00 in0.0 mm 0.00 in0.0 mm
06:15 PM 51.3°F10.7°C 44.2°F6.8°C 70% 0.7 mph S1.1 kmh S 2.2 mph3.5 kmh 29.78 in1008.5 mb 0.00 in0.0 mm 0.00 in0.0 mm 0.00 in0.0 mm
06:10 PM 51.6°F10.9°C 44.5°F6.9°C 70% Calm Calm 0.7 mph1.1 kmh 29.78 in1008.5 mb 0.00 in0.0 mm 0.00 in0.0 mm 0.00 in0.0 mm
06:05 PM 51.8°F11.0°C 43.8°F6.6°C 67% 0.7 mph 1.1 kmh 2.2 mph3.5 kmh 29.78 in1008.5 mb 0.00 in0.0 mm 0.00 in0.0 mm 0.00 in0.0 mm
06:00 PM 52.5°F11.4°C 43.9°F6.6°C 65% 0.7 mph 1.1 kmh 1.6 mph2.6 kmh 29.78 in1008.5 mb 0.00 in0.0 mm 0.00 in0.0 mm 0.00 in0.0 mm
05:55 PM 52.5°F11.4°C 43.9°F6.6°C 65% 0.7 mph 1.1 kmh 1.6 mph2.6 kmh 29.78 in1008.5 mb 0.00 in0.0 mm 0.00 in0.0 mm 0.00 in0.0 mm
05:50 PM 52.9°F11.6°C 44.0°F6.7°C 64% Calm Calm 0.7 mph1.1 kmh 29.78 in1008.5 mb 0.00 in0.0 mm 0.00 in0.0 mm 0.00 in0.0 mm
05:45 PM 53.2°F11.8°C 44.0°F6.7°C 63% 1.6 mph 2.6 kmh 3.8 mph6.1 kmh 29.78 in1008.5 mb 0.00 in0.0 mm 0.00 in0.0 mm 0.00 in0.0 mm
05:40 PM 53.4°F11.9°C 44.2°F6.8°C 63% 2.2 mph S3.5 kmh S 3.1 mph5.0 kmh 29.78 in1008.5 mb 0.00 in0.0 mm 0.00 in0.0 mm 0.00 in0.0 mm
05:35 PM 53.8°F12.1°C 43.9°F6.6°C 61% Calm Calm 1.6 mph2.6 kmh 29.78 in1008.5 mb 0.00 in0.0 mm 0.00 in0.0 mm 0.00 in0.0 mm
05:30 PM 54.0°F12.2°C 44.1°F6.7°C 61% 2.2 mph NE3.5 kmh NE 4.5 mph7.2 kmh 29.78 in1008.5 mb 0.00 in0.0 mm 0.00 in0.0 mm 0.00 in0.0 mm
05:25 PM 54.1°F12.3°C 44.2°F6.8°C 61% 3.1 mph 5.0 kmh 5.4 mph8.7 kmh 29.78 in1008.5 mb 0.00 in0.0 mm 0.00 in0.0 mm 0.00 in0.0 mm
05:20 PM 54.5°F12.5°C 44.2°F6.8°C 60% 3.1 mph 5.0 kmh 7.6 mph12.2 kmh 29.78 in1008.5 mb 0.00 in0.0 mm 0.00 in0.0 mm 0.00 in0.0 mm
05:15 PM 54.9°F12.7°C 44.6°F7.0°C 60% 1.6 mph 2.6 kmh 2.2 mph3.5 kmh 29.79 in1008.8 mb 0.00 in0.0 mm 0.00 in0.0 mm 0.00 in0.0 mm
05:10 PM 55.0°F12.8°C 44.4°F6.9°C 59% 3.1 mph NE5.0 kmh NE 4.5 mph7.2 kmh 29.78 in1008.5 mb 0.00 in0.0 mm 0.00 in0.0 mm 0.00 in0.0 mm
05:05 PM 55.4°F13.0°C 44.4°F6.9°C 58% 1.6 mph 2.6 kmh 2.2 mph3.5 kmh 29.78 in1008.5 mb 0.00 in0.0 mm 0.00 in0.0 mm 0.00 in0.0 mm
05:00 PM 55.8°F13.2°C 44.4°F6.9°C 57% 4.5 mph WNW7.2 kmh WNW 6.9 mph11.1 kmh 29.78 in1008.5 mb 0.00 in0.0 mm 0.00 in0.0 mm 0.00 in0.0 mm
04:55 PM 56.3°F13.5°C 44.6°F7.0°C 56% 3.1 mph SW5.0 kmh SW 4.5 mph7.2 kmh 29.78 in1008.5 mb 0.00 in0.0 mm 0.00 in0.0 mm 0.00 in0.0 mm
04:50 PM 57.0°F13.9°C 44.5°F6.9°C 54% 3.1 mph NE5.0 kmh NE 4.5 mph7.2 kmh 29.78 in1008.5 mb 0.00 in0.0 mm 0.00 in0.0 mm 0.00 in0.0 mm
04:45 PM 58.8°F14.9°C 45.1°F7.3°C 51% 4.5 mph 7.2 kmh 5.4 mph8.7 kmh 29.78 in1008.5 mb 0.00 in0.0 mm 0.00 in0.0 mm 0.00 in0.0 mm
04:40 PM 59.9°F15.5°C 44.9°F7.2°C 48% 3.8 mph NW6.1 kmh NW 6.9 mph11.1 kmh 29.78 in1008.5 mb 0.00 in0.0 mm 0.00 in0.0 mm 0.00 in0.0 mm
04:35 PM 61.0°F16.1°C 45.0°F7.2°C 46% 5.4 mph 8.7 kmh 9.8 mph15.8 kmh 29.78 in1008.5 mb 0.00 in0.0 mm 0.00 in0.0 mm 0.00 in0.0 mm
04:30 PM 61.3°F16.3°C 45.3°F7.4°C 46% 3.1 mph 5.0 kmh 4.5 mph7.2 kmh 29.78 in1008.5 mb 0.00 in0.0 mm 0.00 in0.0 mm 0.00 in0.0 mm
04:25 PM 61.0°F16.1°C 45.4°F7.4°C 47% 2.2 mph NE3.5 kmh NE 3.8 mph6.1 kmh 29.78 in1008.5 mb 0.00 in0.0 mm 0.00 in0.0 mm 0.00 in0.0 mm
04:20 PM 61.3°F16.3°C 44.5°F6.9°C 44% 3.8 mph NW6.1 kmh NW 6.9 mph11.1 kmh 29.78 in1008.5 mb 0.00 in0.0 mm 0.00 in0.0 mm 0.00 in0.0 mm
04:15 PM 62.6°F17.0°C 44.7°F7.1°C 42% 3.8 mph NE6.1 kmh NE 7.6 mph12.2 kmh 29.78 in1008.5 mb 0.00 in0.0 mm 0.00 in0.0 mm 0.00 in0.0 mm
04:10 PM 62.6°F17.0°C 44.7°F7.1°C 42% 3.8 mph NE6.1 kmh NE 7.6 mph12.2 kmh 29.78 in1008.5 mb 0.00 in0.0 mm 0.00 in0.0 mm 0.00 in0.0 mm
04:05 PM 61.9°F16.6°C 44.5°F6.9°C 43% 1.6 mph NE2.6 kmh NE 3.1 mph5.0 kmh 29.78 in1008.5 mb 0.00 in0.0 mm 0.00 in0.0 mm 0.00 in0.0 mm
04:00 PM 62.6°F17.0°C 44.2°F6.8°C 41% 4.5 mph NE7.2 kmh NE 6.9 mph11.1 kmh 29.79 in1008.8 mb 0.00 in0.0 mm 0.00 in0.0 mm 0.00 in0.0 mm
03:55 PM 62.6°F17.0°C 44.2°F6.8°C 41% 1.6 mph 2.6 kmh 3.8 mph6.1 kmh 29.79 in1008.8 mb 0.00 in0.0 mm 0.00 in0.0 mm 0.00 in0.0 mm
03:50 PM 62.4°F16.9°C 45.0°F7.2°C 43% 2.2 mph NE3.5 kmh NE 5.4 mph8.7 kmh 29.79 in1008.8 mb 0.00 in0.0 mm 0.00 in0.0 mm 0.00 in0.0 mm
03:45 PM 61.7°F16.5°C 44.3°F6.8°C 43% 2.2 mph 3.5 kmh 6.0 mph9.7 kmh 29.79 in1008.8 mb 0.00 in0.0 mm 0.00 in0.0 mm 0.00 in0.0 mm
03:40 PM 61.9°F16.6°C 43.6°F6.4°C 41% 5.4 mph 8.7 kmh 8.3 mph13.4 kmh 29.79 in1008.8 mb 0.00 in0.0 mm 0.00 in0.0 mm 0.00 in0.0 mm
03:35 PM 62.1°F16.7°C 43.7°F6.5°C 41% 3.8 mph NE6.1 kmh NE 11.4 mph18.3 kmh 29.79 in1008.8 mb 0.00 in0.0 mm 0.00 in0.0 mm 0.00 in0.0 mm
03:30 PM 61.7°F16.5°C 43.4°F6.3°C 41% 1.6 mph 2.6 kmh 3.8 mph6.1 kmh 29.79 in1008.8 mb 0.00 in0.0 mm 0.00 in0.0 mm 0.00 in0.0 mm
03:25 PM 63.1°F17.3°C 43.7°F6.5°C 39% 3.8 mph 6.1 kmh 8.3 mph13.4 kmh 29.79 in1008.8 mb 0.00 in0.0 mm 0.00 in0.0 mm 0.00 in0.0 mm
03:20 PM 63.0°F17.2°C 43.6°F6.4°C 39% 2.2 mph 3.5 kmh 3.8 mph6.1 kmh 29.79 in1008.8 mb 0.00 in0.0 mm 0.00 in0.0 mm 0.00 in0.0 mm
03:15 PM 62.8°F17.1°C 43.9°F6.6°C 40% 3.8 mph NE6.1 kmh NE 5.4 mph8.7 kmh 29.79 in1008.8 mb 0.00 in0.0 mm 0.00 in0.0 mm 0.00 in0.0 mm
03:10 PM 62.6°F17.0°C 43.2°F6.2°C 39% 6.0 mph S9.7 kmh S 9.2 mph14.8 kmh 29.79 in1008.8 mb 0.00 in0.0 mm 0.00 in0.0 mm 0.00 in0.0 mm
03:05 PM 62.4°F16.9°C 44.1°F6.7°C 41% 2.2 mph S3.5 kmh S 3.8 mph6.1 kmh 29.79 in1008.8 mb 0.00 in0.0 mm 0.00 in0.0 mm 0.00 in0.0 mm
03:00 PM 62.4°F16.9°C 43.6°F6.4°C 40% 2.2 mph NW3.5 kmh NW 6.0 mph9.7 kmh 29.79 in1008.8 mb 0.00 in0.0 mm 0.00 in0.0 mm 0.00 in0.0 mm
02:55 PM 62.1°F16.7°C 43.3°F6.3°C 40% 1.6 mph NE2.6 kmh NE 3.1 mph5.0 kmh 29.80 in1009.1 mb 0.00 in0.0 mm 0.00 in0.0 mm 0.00 in0.0 mm
02:50 PM 61.5°F16.4°C 42.8°F6.0°C 40% 2.2 mph NE3.5 kmh NE 3.8 mph6.1 kmh 29.79 in1008.8 mb 0.00 in0.0 mm 0.00 in0.0 mm 0.00 in0.0 mm
02:45 PM 62.4°F16.9°C 43.6°F6.4°C 40% 2.2 mph WSW3.5 kmh WSW 3.8 mph6.1 kmh 29.80 in1009.1 mb 0.00 in0.0 mm 0.00 in0.0 mm 0.00 in0.0 mm
02:40 PM 62.1°F16.7°C 43.7°F6.5°C 41% 3.8 mph 6.1 kmh 6.0 mph9.7 kmh 29.79 in1008.8 mb 0.00 in0.0 mm 0.00 in0.0 mm 0.00 in0.0 mm
02:35 PM 61.3°F16.3°C 42.6°F5.9°C 40% 3.8 mph NE6.1 kmh NE 6.9 mph11.1 kmh 29.79 in1008.8 mb 0.00 in0.0 mm 0.00 in0.0 mm 0.00 in0.0 mm
02:30 PM 61.5°F16.4°C 42.8°F6.0°C 40% 3.1 mph NE5.0 kmh NE 6.9 mph11.1 kmh 29.80 in1009.1 mb 0.00 in0.0 mm 0.00 in0.0 mm 0.00 in0.0 mm
02:25 PM 61.3°F16.3°C 42.6°F5.9°C 40% 3.8 mph NE6.1 kmh NE 7.6 mph12.2 kmh 29.80 in1009.1 mb 0.00 in0.0 mm 0.00 in0.0 mm 0.00 in0.0 mm
02:20 PM 60.6°F15.9°C 42.5°F5.8°C 41% 2.2 mph NE3.5 kmh NE 3.8 mph6.1 kmh 29.80 in1009.1 mb 0.00 in0.0 mm 0.00 in0.0 mm 0.00 in0.0 mm
02:15 PM 61.0°F16.1°C 41.8°F5.4°C 39% 2.2 mph 3.5 kmh 5.4 mph8.7 kmh 29.80 in1009.1 mb 0.00 in0.0 mm 0.00 in0.0 mm 0.00 in0.0 mm
02:10 PM 61.0°F16.1°C 41.8°F5.4°C 39% 2.2 mph 3.5 kmh 5.4 mph8.7 kmh 29.80 in1009.1 mb 0.00 in0.0 mm 0.00 in0.0 mm 0.00 in0.0 mm
02:05 PM 61.7°F16.5°C 42.9°F6.1°C 40% 3.1 mph WNW5.0 kmh WNW 4.5 mph7.2 kmh 29.80 in1009.1 mb 0.00 in0.0 mm 0.00 in0.0 mm 0.00 in0.0 mm
02:00 PM 62.4°F16.9°C 43.1°F6.2°C 39% 2.2 mph 3.5 kmh 4.5 mph7.2 kmh 29.80 in1009.1 mb 0.00 in0.0 mm 0.00 in0.0 mm 0.00 in0.0 mm
01:55 PM 63.0°F17.2°C 43.1°F6.2°C 38% 1.6 mph 2.6 kmh 3.1 mph5.0 kmh 29.80 in1009.1 mb 0.00 in0.0 mm 0.00 in0.0 mm 0.00 in0.0 mm
01:50 PM 63.7°F17.6°C 44.2°F6.8°C 39% 3.1 mph 5.0 kmh 4.5 mph7.2 kmh 29.80 in1009.1 mb 0.00 in0.0 mm 0.00 in0.0 mm 0.00 in0.0 mm
01:45 PM 62.2°F16.8°C 43.9°F6.6°C 41% 1.6 mph NE2.6 kmh NE 3.1 mph5.0 kmh 29.80 in1009.1 mb 0.00 in0.0 mm 0.00 in0.0 mm 0.00 in0.0 mm
01:40 PM 61.9°F16.6°C 43.1°F6.2°C 40% 4.5 mph NE7.2 kmh NE 8.3 mph13.4 kmh 29.80 in1009.1 mb 0.00 in0.0 mm 0.00 in0.0 mm 0.00 in0.0 mm
01:35 PM 61.0°F16.1°C 42.8°F6.0°C 41% 1.6 mph 2.6 kmh 2.2 mph3.5 kmh 29.81 in1009.5 mb 0.00 in0.0 mm 0.00 in0.0 mm 0.00 in0.0 mm
01:30 PM 59.5°F15.3°C 42.4°F5.8°C 43% 2.2 mph NW3.5 kmh NW 3.8 mph6.1 kmh 29.80 in1009.1 mb 0.00 in0.0 mm 0.00 in0.0 mm 0.00 in0.0 mm
01:25 PM 59.2°F15.1°C 42.1°F5.6°C 43% 2.2 mph 3.5 kmh 3.8 mph6.1 kmh 29.80 in1009.1 mb 0.00 in0.0 mm 0.00 in0.0 mm 0.00 in0.0 mm
01:20 PM 60.3°F15.7°C 42.1°F5.6°C 41% 6.9 mph NE11.1 kmh NE 12.1 mph19.5 kmh 29.79 in1008.8 mb 0.00 in0.0 mm 0.00 in0.0 mm 0.00 in0.0 mm
01:15 PM 61.2°F16.2°C 42.9°F6.1°C 41% 6.0 mph 9.7 kmh 8.3 mph13.4 kmh 29.80 in1009.1 mb 0.00 in0.0 mm 0.00 in0.0 mm 0.00 in0.0 mm
01:10 PM 61.3°F16.3°C 43.6°F6.4°C 42% 4.5 mph 7.2 kmh 6.0 mph9.7 kmh 29.80 in1009.1 mb 0.00 in0.0 mm 0.00 in0.0 mm 0.00 in0.0 mm
01:05 PM 60.4°F15.8°C 43.7°F6.5°C 44% 1.6 mph W2.6 kmh W 3.8 mph6.1 kmh 29.80 in1009.1 mb 0.00 in0.0 mm 0.00 in0.0 mm 0.00 in0.0 mm
01:00 PM 58.8°F14.9°C 42.2°F5.7°C 44% 2.2 mph 3.5 kmh 3.1 mph5.0 kmh 29.80 in1009.1 mb 0.00 in0.0 mm 0.00 in0.0 mm 0.00 in0.0 mm
12:55 PM 59.4°F15.2°C 41.8°F5.4°C 42% 2.2 mph 3.5 kmh 6.9 mph11.1 kmh 29.80 in1009.1 mb 0.00 in0.0 mm 0.00 in0.0 mm 0.00 in0.0 mm
12:50 PM 60.1°F15.6°C 43.3°F6.3°C 44% 3.8 mph S6.1 kmh S 8.3 mph13.4 kmh 29.80 in1009.1 mb 0.00 in0.0 mm 0.00 in0.0 mm 0.00 in0.0 mm
12:45 PM 59.9°F15.5°C 43.2°F6.2°C 44% 2.2 mph NE3.5 kmh NE 3.8 mph6.1 kmh 29.80 in1009.1 mb 0.00 in0.0 mm 0.00 in0.0 mm 0.00 in0.0 mm
12:40 PM 60.6°F15.9°C 43.8°F6.6°C 44% 5.4 mph E8.7 kmh E 8.3 mph13.4 kmh 29.80 in1009.1 mb 0.00 in0.0 mm 0.00 in0.0 mm 0.00 in0.0 mm
12:35 PM 61.0°F16.1°C 43.7°F6.5°C 43% 3.1 mph E5.0 kmh E 4.5 mph7.2 kmh 29.80 in1009.1 mb 0.00 in0.0 mm 0.00 in0.0 mm 0.00 in0.0 mm
12:30 PM 60.6°F15.9°C 45.1°F7.3°C 47% 3.1 mph 5.0 kmh 5.4 mph8.7 kmh 29.80 in1009.1 mb 0.00 in0.0 mm 0.00 in0.0 mm 0.00 in0.0 mm
12:25 PM 60.1°F15.6°C 42.9°F6.1°C 43% 3.8 mph SE6.1 kmh SE 6.0 mph9.7 kmh 29.80 in1009.1 mb 0.00 in0.0 mm 0.00 in0.0 mm 0.00 in0.0 mm
12:20 PM 59.9°F15.5°C 44.9°F7.2°C 48% 2.2 mph NE3.5 kmh NE 4.5 mph7.2 kmh 29.80 in1009.1 mb 0.00 in0.0 mm 0.00 in0.0 mm 0.00 in0.0 mm
12:15 PM 59.0°F15.0°C 43.2°F6.2°C 46% 2.2 mph 3.5 kmh 6.0 mph9.7 kmh 29.80 in1009.1 mb 0.00 in0.0 mm 0.00 in0.0 mm 0.00 in0.0 mm
12:10 PM 59.2°F15.1°C 44.2°F6.8°C 48% 3.8 mph 6.1 kmh 8.3 mph13.4 kmh 29.80 in1009.1 mb 0.00 in0.0 mm 0.00 in0.0 mm 0.00 in0.0 mm
12:05 PM 57.9°F14.4°C 43.1°F6.2°C 48% 7.6 mph NW12.2 kmh NW 13.0 mph20.9 kmh 29.79 in1008.8 mb 0.00 in0.0 mm 0.00 in0.0 mm 0.00 in0.0 mm
12:00 PM 58.5°F14.7°C 44.4°F6.9°C 50% 9.2 mph S14.8 kmh S 13.0 mph20.9 kmh 29.80 in1009.1 mb 0.00 in0.0 mm 0.00 in0.0 mm 0.00 in0.0 mm
11:55 AM 57.7°F14.3°C 43.3°F6.3°C 49% 6.9 mph NE11.1 kmh NE 9.2 mph14.8 kmh 29.80 in1009.1 mb 0.00 in0.0 mm 0.00 in0.0 mm 0.00 in0.0 mm
11:50 AM 58.5°F14.7°C 44.0°F6.7°C 49% 3.1 mph NE5.0 kmh NE 5.4 mph8.7 kmh 29.80 in1009.1 mb 0.00 in0.0 mm 0.00 in0.0 mm 0.00 in0.0 mm
11:45 AM 58.5°F14.7°C 44.7°F7.1°C 51% 4.5 mph SE7.2 kmh SE 8.3 mph13.4 kmh 29.80 in1009.1 mb 0.00 in0.0 mm 0.00 in0.0 mm 0.00 in0.0 mm
11:40 AM 55.9°F13.3°C 42.8°F6.0°C 52% 2.2 mph SE3.5 kmh SE 3.8 mph6.1 kmh 29.80 in1009.1 mb 0.00 in0.0 mm 0.00 in0.0 mm 0.00 in0.0 mm
11:35 AM 55.8°F13.2°C 41.5°F5.3°C 49% 8.3 mph N13.4 kmh N 11.4 mph18.3 kmh 29.80 in1009.1 mb 0.00 in0.0 mm 0.00 in0.0 mm 0.00 in0.0 mm
11:30 AM 56.5°F13.6°C 43.3°F6.3°C 52% 6.0 mph NE9.7 kmh NE 9.2 mph14.8 kmh 29.80 in1009.1 mb 0.00 in0.0 mm 0.00 in0.0 mm 0.00 in0.0 mm
11:25 AM 55.8°F13.2°C 43.0°F6.1°C 53% 5.4 mph E8.7 kmh E 8.3 mph13.4 kmh 29.80 in1009.1 mb 0.00 in0.0 mm 0.00 in0.0 mm 0.00 in0.0 mm
11:20 AM 55.8°F13.2°C 42.7°F5.9°C 52% 6.9 mph 11.1 kmh 10.7 mph17.2 kmh 29.80 in1009.1 mb 0.00 in0.0 mm 0.00 in0.0 mm 0.00 in0.0 mm
11:15 AM 55.4°F13.0°C 42.7°F5.9°C 53% 5.4 mph NE8.7 kmh NE 8.3 mph13.4 kmh 29.80 in1009.1 mb 0.00 in0.0 mm 0.00 in0.0 mm 0.00 in0.0 mm
11:10 AM 55.4°F13.0°C 42.7°F5.9°C 53% 6.9 mph NNE11.1 kmh NNE 10.7 mph17.2 kmh 29.80 in1009.1 mb 0.00 in0.0 mm 0.00 in0.0 mm 0.00 in0.0 mm
11:05 AM 55.6°F13.1°C 42.5°F5.8°C 52% 6.0 mph NNW9.7 kmh NNW 9.8 mph15.8 kmh 29.81 in1009.5 mb 0.00 in0.0 mm 0.00 in0.0 mm 0.00 in0.0 mm
11:00 AM 57.4°F14.1°C 44.1°F6.7°C 52% 5.4 mph NE8.7 kmh NE 9.2 mph14.8 kmh 29.80 in1009.1 mb 0.00 in0.0 mm 0.00 in0.0 mm 0.00 in0.0 mm
10:55 AM 56.1°F13.4°C 44.4°F6.9°C 56% 1.6 mph NE2.6 kmh NE 3.1 mph5.0 kmh 29.80 in1009.1 mb 0.00 in0.0 mm 0.00 in0.0 mm 0.00 in0.0 mm
10:50 AM 54.9°F12.7°C 43.9°F6.6°C 58% 5.4 mph WNW8.7 kmh WNW 9.2 mph14.8 kmh 29.80 in1009.1 mb 0.00 in0.0 mm 0.00 in0.0 mm 0.00 in0.0 mm
10:45 AM 55.2°F12.9°C 43.6°F6.4°C 56% 6.9 mph NE11.1 kmh NE 9.8 mph15.8 kmh 29.80 in1009.1 mb 0.00 in0.0 mm 0.00 in0.0 mm 0.00 in0.0 mm
10:40 AM 55.8°F13.2°C 44.1°F6.7°C 56% 3.8 mph 6.1 kmh 6.0 mph9.7 kmh 29.80 in1009.1 mb 0.00 in0.0 mm 0.00 in0.0 mm 0.00 in0.0 mm
10:35 AM 55.8°F13.2°C 44.4°F6.9°C 57% 4.5 mph 7.2 kmh 8.3 mph13.4 kmh 29.80 in1009.1 mb 0.00 in0.0 mm 0.00 in0.0 mm 0.00 in0.0 mm
10:30 AM 54.9°F12.7°C 44.3°F6.8°C 59% 3.1 mph WNW5.0 kmh WNW 8.3 mph13.4 kmh 29.80 in1009.1 mb 0.00 in0.0 mm 0.00 in0.0 mm 0.00 in0.0 mm
10:25 AM 54.0°F12.2°C 43.7°F6.5°C 60% 3.8 mph 6.1 kmh 8.3 mph13.4 kmh 29.80 in1009.1 mb 0.00 in0.0 mm 0.00 in0.0 mm 0.00 in0.0 mm
10:20 AM 54.1°F12.3°C 43.9°F6.6°C 60% 6.0 mph 9.7 kmh 9.2 mph14.8 kmh 29.80 in1009.1 mb 0.00 in0.0 mm 0.00 in0.0 mm 0.00 in0.0 mm
10:15 AM 53.2°F11.8°C 45.5°F7.5°C 68% 1.6 mph NE2.6 kmh NE 3.1 mph5.0 kmh 29.80 in1009.1 mb 0.00 in0.0 mm 0.00 in0.0 mm 0.00 in0.0 mm
10:10 AM 51.1°F10.6°C 43.2°F6.2°C 67% 3.1 mph 5.0 kmh 6.9 mph11.1 kmh 29.80 in1009.1 mb 0.00 in0.0 mm 0.00 in0.0 mm 0.00 in0.0 mm
10:05 AM 51.4°F10.8°C 44.4°F6.9°C 70% 6.9 mph NE11.1 kmh NE 12.1 mph19.5 kmh 29.81 in1009.5 mb 0.00 in0.0 mm 0.00 in0.0 mm 0.00 in0.0 mm
10:00 AM 49.8°F9.9°C 43.1°F6.2°C 71% 4.5 mph NE7.2 kmh NE 6.9 mph11.1 kmh 29.80 in1009.1 mb 0.00 in0.0 mm 0.00 in0.0 mm 0.00 in0.0 mm
09:55 AM 50.2°F10.1°C 43.2°F6.2°C 70% 7.6 mph NE12.2 kmh NE 9.8 mph15.8 kmh 29.81 in1009.5 mb 0.00 in0.0 mm 0.00 in0.0 mm 0.00 in0.0 mm
09:50 AM 51.1°F10.6°C 44.3°F6.8°C 71% 4.5 mph NE7.2 kmh NE 6.9 mph11.1 kmh 29.80 in1009.1 mb 0.00 in0.0 mm 0.00 in0.0 mm 0.00 in0.0 mm
09:45 AM 50.7°F10.4°C 44.7°F7.1°C 74% 5.4 mph NW8.7 kmh NW 10.7 mph17.2 kmh 29.80 in1009.1 mb 0.00 in0.0 mm 0.00 in0.0 mm 0.00 in0.0 mm
09:40 AM 48.4°F9.1°C 43.0°F6.1°C 76% 4.5 mph 7.2 kmh 7.6 mph12.2 kmh 29.80 in1009.1 mb 0.00 in0.0 mm 0.00 in0.0 mm 0.00 in0.0 mm
09:35 AM 47.3°F8.5°C 42.5°F5.8°C 78% 3.8 mph NNW6.1 kmh NNW 8.3 mph13.4 kmh 29.81 in1009.5 mb 0.00 in0.0 mm 0.00 in0.0 mm 0.00 in0.0 mm
09:30 AM 47.1°F8.4°C 42.8°F6.0°C 80% 7.6 mph NNW12.2 kmh NNW 9.8 mph15.8 kmh 29.80 in1009.1 mb 0.00 in0.0 mm 0.00 in0.0 mm 0.00 in0.0 mm
09:25 AM 46.8°F8.2°C 42.9°F6.1°C 82% 2.2 mph 3.5 kmh 5.4 mph8.7 kmh 29.80 in1009.1 mb 0.00 in0.0 mm 0.00 in0.0 mm 0.00 in0.0 mm
09:20 AM 46.6°F8.1°C 43.0°F6.1°C 83% 5.4 mph 8.7 kmh 8.3 mph13.4 kmh 29.80 in1009.1 mb 0.00 in0.0 mm 0.00 in0.0 mm 0.00 in0.0 mm
09:15 AM 46.4°F8.0°C 43.0°F6.1°C 84% 0.7 mph 1.1 kmh 2.2 mph3.5 kmh 29.81 in1009.5 mb 0.00 in0.0 mm 0.00 in0.0 mm 0.00 in0.0 mm
09:10 AM 46.2°F7.9°C 43.3°F6.3°C 86% 1.6 mph 2.6 kmh 2.2 mph3.5 kmh 29.80 in1009.1 mb 0.00 in0.0 mm 0.00 in0.0 mm 0.00 in0.0 mm
09:05 AM 45.9°F7.7°C 42.9°F6.1°C 86% 5.4 mph 8.7 kmh 9.2 mph14.8 kmh 29.80 in1009.1 mb 0.00 in0.0 mm 0.00 in0.0 mm 0.00 in0.0 mm
09:00 AM 45.9°F7.7°C 42.9°F6.1°C 86% 5.4 mph 8.7 kmh 9.2 mph14.8 kmh 29.80 in1009.1 mb 0.00 in0.0 mm 0.00 in0.0 mm 0.00 in0.0 mm
08:55 AM 45.9°F7.7°C 42.9°F6.1°C 86% 3.8 mph E6.1 kmh E 5.4 mph8.7 kmh 29.81 in1009.5 mb 0.00 in0.0 mm 0.00 in0.0 mm 0.00 in0.0 mm
08:50 AM 46.0°F7.8°C 43.1°F6.2°C 86% 3.8 mph NE6.1 kmh NE 6.0 mph9.7 kmh 29.80 in1009.1 mb 0.00 in0.0 mm 0.00 in0.0 mm 0.00 in0.0 mm
08:45 AM 46.2°F7.9°C 43.3°F6.3°C 86% 6.9 mph NE11.1 kmh NE 11.4 mph18.3 kmh 29.80 in1009.1 mb 0.00 in0.0 mm 0.00 in0.0 mm 0.00 in0.0 mm
08:40 AM 46.2°F7.9°C 43.5°F6.4°C 87% 5.4 mph SE8.7 kmh SE 8.3 mph13.4 kmh 29.80 in1009.1 mb 0.00 in0.0 mm 0.00 in0.0 mm 0.00 in0.0 mm
08:35 AM 46.2°F7.9°C 43.7°F6.5°C 88% 2.2 mph NE3.5 kmh NE 3.8 mph6.1 kmh 29.80 in1009.1 mb 0.00 in0.0 mm 0.00 in0.0 mm 0.00 in0.0 mm
08:30 AM 46.0°F7.8°C 43.6°F6.4°C 88% 0.7 mph NE1.1 kmh NE 1.6 mph2.6 kmh 29.80 in1009.1 mb 0.00 in0.0 mm 0.00 in0.0 mm 0.00 in0.0 mm
08:25 AM 46.0°F7.8°C 43.6°F6.4°C 88% 2.2 mph 3.5 kmh 4.5 mph7.2 kmh 29.80 in1009.1 mb 0.00 in0.0 mm 0.00 in0.0 mm 0.00 in0.0 mm
08:20 AM 46.0°F7.8°C 43.6°F6.4°C 88% 0.7 mph NE1.1 kmh NE 2.2 mph3.5 kmh 29.80 in1009.1 mb 0.00 in0.0 mm 0.00 in0.0 mm 0.00 in0.0 mm
08:15 AM 46.0°F7.8°C 43.6°F6.4°C 88% 1.6 mph 2.6 kmh 3.8 mph6.1 kmh 29.80 in1009.1 mb 0.00 in0.0 mm 0.00 in0.0 mm 0.00 in0.0 mm
08:10 AM 45.9°F7.7°C 43.4°F6.3°C 88% 2.2 mph 3.5 kmh 4.5 mph7.2 kmh 29.80 in1009.1 mb 0.00 in0.0 mm 0.00 in0.0 mm 0.00 in0.0 mm
08:05 AM 45.9°F7.7°C 43.4°F6.3°C 88% 2.2 mph WNW3.5 kmh WNW 6.9 mph11.1 kmh 29.80 in1009.1 mb 0.00 in0.0 mm 0.00 in0.0 mm 0.00 in0.0 mm
08:00 AM 45.9°F7.7°C 43.4°F6.3°C 88% 3.8 mph 6.1 kmh 6.0 mph9.7 kmh 29.80 in1009.1 mb 0.00 in0.0 mm 0.00 in0.0 mm 0.00 in0.0 mm
07:55 AM 45.9°F7.7°C 43.4°F6.3°C 88% 5.4 mph NE8.7 kmh NE 7.6 mph12.2 kmh 29.80 in1009.1 mb 0.00 in0.0 mm 0.00 in0.0 mm 0.00 in0.0 mm
07:50 AM 45.7°F7.6°C 43.2°F6.2°C 88% 3.8 mph E6.1 kmh E 6.9 mph11.1 kmh 29.80 in1009.1 mb 0.00 in0.0 mm 0.00 in0.0 mm 0.00 in0.0 mm
07:45 AM 45.7°F7.6°C 43.4°F6.3°C 89% 4.5 mph NE7.2 kmh NE 9.8 mph15.8 kmh 29.79 in1008.8 mb 0.00 in0.0 mm 0.00 in0.0 mm 0.00 in0.0 mm
07:40 AM 45.5°F7.5°C 43.7°F6.5°C 91% 3.8 mph NE6.1 kmh NE 6.9 mph11.1 kmh 29.79 in1008.8 mb 0.00 in0.0 mm 0.00 in0.0 mm 0.00 in0.0 mm
07:35 AM 45.5°F7.5°C 43.9°F6.6°C 92% 4.5 mph NE7.2 kmh NE 7.6 mph12.2 kmh 29.79 in1008.8 mb 0.00 in0.0 mm 0.00 in0.0 mm 0.00 in0.0 mm
07:30 AM 45.3°F7.4°C 43.9°F6.6°C 93% 4.5 mph NE7.2 kmh NE 6.0 mph9.7 kmh 29.80 in1009.1 mb 0.00 in0.0 mm 0.00 in0.0 mm 0.00 in0.0 mm
07:25 AM 45.1°F7.3°C 43.9°F6.6°C 94% 2.2 mph 3.5 kmh 4.5 mph7.2 kmh 29.79 in1008.8 mb 0.00 in0.0 mm 0.00 in0.0 mm 0.00 in0.0 mm
07:20 AM 45.0°F7.2°C 44.0°F6.7°C 95% 1.6 mph NE2.6 kmh NE 3.1 mph5.0 kmh 29.80 in1009.1 mb 0.00 in0.0 mm 0.00 in0.0 mm 0.00 in0.0 mm
07:15 AM 44.6°F7.0°C 43.8°F6.6°C 96% 3.8 mph ENE6.1 kmh ENE 7.6 mph12.2 kmh 29.80 in1009.1 mb 0.00 in0.0 mm 0.00 in0.0 mm 0.00 in0.0 mm
07:10 AM 44.4°F6.9°C 44.0°F6.7°C 98% 1.6 mph NE2.6 kmh NE 9.8 mph15.8 kmh 29.80 in1009.1 mb 0.00 in0.0 mm 0.00 in0.0 mm 0.00 in0.0 mm
07:05 AM 44.1°F6.7°C 43.7°F6.5°C 98% 0.7 mph E1.1 kmh E 1.6 mph2.6 kmh 29.79 in1008.8 mb 0.00 in0.0 mm 0.00 in0.0 mm 0.00 in0.0 mm
07:00 AM 43.7°F6.5°C 43.3°F6.3°C 98% 3.8 mph NW6.1 kmh NW 9.2 mph14.8 kmh 29.80 in1009.1 mb 0.00 in0.0 mm 0.00 in0.0 mm 0.00 in0.0 mm
06:55 AM 43.5°F6.4°C 43.1°F6.2°C 98% 4.5 mph E7.2 kmh E 6.9 mph11.1 kmh 29.79 in1008.8 mb 0.00 in0.0 mm 0.00 in0.0 mm 0.00 in0.0 mm
06:50 AM 43.3°F6.3°C 43.0°F6.1°C 98% 1.6 mph 2.6 kmh 3.8 mph6.1 kmh 29.79 in1008.8 mb 0.00 in0.0 mm 0.00 in0.0 mm 0.00 in0.0 mm
06:45 AM 43.2°F6.2°C 42.8°F6.0°C 98% 3.1 mph SW5.0 kmh SW 5.4 mph8.7 kmh 29.79 in1008.8 mb 0.00 in0.0 mm 0.00 in0.0 mm 0.00 in0.0 mm
06:40 AM 43.0°F6.1°C 42.6°F5.9°C 98% 2.2 mph E3.5 kmh E 3.8 mph6.1 kmh 29.79 in1008.8 mb 0.00 in0.0 mm 0.00 in0.0 mm 0.00 in0.0 mm
06:35 AM 43.2°F6.2°C 42.8°F6.0°C 98% 3.8 mph NE6.1 kmh NE 7.6 mph12.2 kmh 29.78 in1008.5 mb 0.00 in0.0 mm 0.00 in0.0 mm 0.00 in0.0 mm
06:30 AM 43.2°F6.2°C 42.8°F6.0°C 98% 3.8 mph NE6.1 kmh NE 6.0 mph9.7 kmh 29.78 in1008.5 mb 0.00 in0.0 mm 0.00 in0.0 mm 0.00 in0.0 mm
06:25 AM 43.0°F6.1°C 42.6°F5.9°C 98% 2.2 mph 3.5 kmh 3.8 mph6.1 kmh 29.79 in1008.8 mb 0.00 in0.0 mm 0.00 in0.0 mm 0.00 in0.0 mm
06:20 AM 43.0°F6.1°C 42.6°F5.9°C 98% 1.6 mph S2.6 kmh S 3.1 mph5.0 kmh 29.79 in1008.8 mb 0.00 in0.0 mm 0.00 in0.0 mm 0.00 in0.0 mm
06:15 AM 43.0°F6.1°C 42.6°F5.9°C 98% 1.6 mph 2.6 kmh 2.2 mph3.5 kmh 29.78 in1008.5 mb 0.00 in0.0 mm 0.00 in0.0 mm 0.00 in0.0 mm
06:10 AM 43.2°F6.2°C 42.8°F6.0°C 98% 2.2 mph 3.5 kmh 3.8 mph6.1 kmh 29.78 in1008.5 mb 0.00 in0.0 mm 0.00 in0.0 mm 0.00 in0.0 mm
06:05 AM 43.0°F6.1°C 42.6°F5.9°C 98% 4.5 mph NW7.2 kmh NW 8.3 mph13.4 kmh 29.79 in1008.8 mb 0.00 in0.0 mm 0.00 in0.0 mm 0.00 in0.0 mm
06:00 AM 43.0°F6.1°C 42.4°F5.8°C 97% 0.7 mph SW1.1 kmh SW 3.1 mph5.0 kmh 29.78 in1008.5 mb 0.00 in0.0 mm 0.00 in0.0 mm 0.00 in0.0 mm
05:55 AM 43.0°F6.1°C 42.4°F5.8°C 97% 2.2 mph 3.5 kmh 3.8 mph6.1 kmh 29.79 in1008.8 mb 0.00 in0.0 mm 0.00 in0.0 mm 0.00 in0.0 mm
05:50 AM 43.2°F6.2°C 42.6°F5.9°C 97% 1.6 mph 2.6 kmh 2.2 mph3.5 kmh 29.78 in1008.5 mb 0.00 in0.0 mm 0.00 in0.0 mm 0.00 in0.0 mm
05:45 AM 43.2°F6.2°C 42.6°F5.9°C 97% 3.8 mph WNW6.1 kmh WNW 8.3 mph13.4 kmh 29.79 in1008.8 mb 0.00 in0.0 mm 0.00 in0.0 mm 0.00 in0.0 mm
05:40 AM 43.2°F6.2°C 42.6°F5.9°C 97% 2.2 mph 3.5 kmh 3.8 mph6.1 kmh 29.79 in1008.8 mb 0.00 in0.0 mm 0.00 in0.0 mm 0.00 in0.0 mm
05:35 AM 43.2°F6.2°C 42.6°F5.9°C 97% 2.2 mph NW3.5 kmh NW 5.4 mph8.7 kmh 29.78 in1008.5 mb 0.00 in0.0 mm 0.00 in0.0 mm 0.00 in0.0 mm
05:30 AM 43.2°F6.2°C 42.6°F5.9°C 97% 3.8 mph NW6.1 kmh NW 5.4 mph8.7 kmh 29.78 in1008.5 mb 0.00 in0.0 mm 0.00 in0.0 mm 0.00 in0.0 mm
05:25 AM 43.3°F6.3°C 42.8°F6.0°C 97% 1.6 mph 2.6 kmh 3.8 mph6.1 kmh 29.78 in1008.5 mb 0.00 in0.0 mm 0.00 in0.0 mm 0.00 in0.0 mm
05:20 AM 43.3°F6.3°C 42.8°F6.0°C 97% 1.6 mph NE2.6 kmh NE 4.5 mph7.2 kmh 29.78 in1008.5 mb 0.00 in0.0 mm 0.00 in0.0 mm 0.00 in0.0 mm
05:15 AM 43.3°F6.3°C 42.8°F6.0°C 97% 0.7 mph 1.1 kmh 2.2 mph3.5 kmh 29.78 in1008.5 mb 0.00 in0.0 mm 0.00 in0.0 mm 0.00 in0.0 mm
05:10 AM 43.5°F6.4°C 42.9°F6.1°C 97% 0.7 mph NW1.1 kmh NW 2.2 mph3.5 kmh 29.78 in1008.5 mb 0.00 in0.0 mm 0.00 in0.0 mm 0.00 in0.0 mm
05:05 AM 43.7°F6.5°C 43.1°F6.2°C 97% 0.7 mph SE1.1 kmh SE 2.2 mph3.5 kmh 29.78 in1008.5 mb 0.00 in0.0 mm 0.00 in0.0 mm 0.00 in0.0 mm
05:00 AM 43.9°F6.6°C 43.3°F6.3°C 97% 1.6 mph NW2.6 kmh NW 3.1 mph5.0 kmh 29.78 in1008.5 mb 0.00 in0.0 mm 0.00 in0.0 mm 0.00 in0.0 mm
04:55 AM 44.1°F6.7°C 43.5°F6.4°C 97% 2.2 mph 3.5 kmh 6.9 mph11.1 kmh 29.78 in1008.5 mb 0.00 in0.0 mm 0.00 in0.0 mm 0.00 in0.0 mm
04:50 AM 44.2°F6.8°C 43.7°F6.5°C 97% 0.7 mph 1.1 kmh 2.2 mph3.5 kmh 29.78 in1008.5 mb 0.00 in0.0 mm 0.00 in0.0 mm 0.00 in0.0 mm
04:45 AM 44.2°F6.8°C 43.8°F6.6°C 98% 3.8 mph NE6.1 kmh NE 6.9 mph11.1 kmh 29.78 in1008.5 mb 0.00 in0.0 mm 0.00 in0.0 mm 0.00 in0.0 mm
04:40 AM 44.2°F6.8°C 43.8°F6.6°C 98% 3.1 mph 5.0 kmh 6.0 mph9.7 kmh 29.78 in1008.5 mb 0.00 in0.0 mm 0.00 in0.0 mm 0.00 in0.0 mm
04:35 AM 44.2°F6.8°C 43.8°F6.6°C 98% 2.2 mph WNW3.5 kmh WNW 3.1 mph5.0 kmh 29.77 in1008.1 mb 0.00 in0.0 mm 0.00 in0.0 mm 0.00 in0.0 mm
04:30 AM 44.2°F6.8°C 43.8°F6.6°C 98% 3.8 mph 6.1 kmh 6.9 mph11.1 kmh 29.77 in1008.1 mb 0.00 in0.0 mm 0.00 in0.0 mm 0.00 in0.0 mm
04:25 AM 44.1°F6.7°C 43.5°F6.4°C 97% 2.2 mph NE3.5 kmh NE 4.5 mph7.2 kmh 29.77 in1008.1 mb 0.00 in0.0 mm 0.00 in0.0 mm 0.00 in0.0 mm
04:20 AM 44.1°F6.7°C 43.5°F6.4°C 97% 3.1 mph 5.0 kmh 7.6 mph12.2 kmh 29.77 in1008.1 mb 0.00 in0.0 mm 0.00 in0.0 mm 0.00 in0.0 mm
04:15 AM 44.1°F6.7°C 43.5°F6.4°C 97% 0.7 mph NE1.1 kmh NE 2.2 mph3.5 kmh 29.77 in1008.1 mb 0.00 in0.0 mm 0.00 in0.0 mm 0.00 in0.0 mm
04:10 AM 44.1°F6.7°C 43.5°F6.4°C 97% 1.6 mph 2.6 kmh 2.2 mph3.5 kmh 29.77 in1008.1 mb 0.00 in0.0 mm 0.00 in0.0 mm 0.00 in0.0 mm
04:05 AM 44.1°F6.7°C 43.5°F6.4°C 97% 2.2 mph 3.5 kmh 3.8 mph6.1 kmh 29.77 in1008.1 mb 0.00 in0.0 mm 0.00 in0.0 mm 0.00 in0.0 mm
04:00 AM 44.1°F6.7°C 43.5°F6.4°C 97% 1.6 mph 2.6 kmh 3.8 mph6.1 kmh 29.77 in1008.1 mb 0.00 in0.0 mm 0.00 in0.0 mm 0.00 in0.0 mm
03:55 AM 44.1°F6.7°C 43.5°F6.4°C 97% 3.1 mph 5.0 kmh 5.4 mph8.7 kmh 29.76 in1007.8 mb 0.00 in0.0 mm 0.00 in0.0 mm 0.00 in0.0 mm
03:50 AM 44.1°F6.7°C 43.3°F6.3°C 96% 3.1 mph NE5.0 kmh NE 4.5 mph7.2 kmh 29.76 in1007.8 mb 0.00 in0.0 mm 0.00 in0.0 mm 0.00 in0.0 mm
03:45 AM 43.9°F6.6°C 43.1°F6.2°C 96% 2.2 mph NNE3.5 kmh NNE 3.8 mph6.1 kmh 29.76 in1007.8 mb 0.00 in0.0 mm 0.00 in0.0 mm 0.00 in0.0 mm
03:40 AM 44.1°F6.7°C 43.3°F6.3°C 96% 1.6 mph NE2.6 kmh NE 6.0 mph9.7 kmh 29.77 in1008.1 mb 0.00 in0.0 mm 0.00 in0.0 mm 0.00 in0.0 mm
03:35 AM 44.1°F6.7°C 43.3°F6.3°C 96% 2.2 mph 3.5 kmh 4.5 mph7.2 kmh 29.76 in1007.8 mb 0.00 in0.0 mm 0.00 in0.0 mm 0.00 in0.0 mm
03:30 AM 44.1°F6.7°C 43.1°F6.2°C 95% 0.7 mph 1.1 kmh 2.2 mph3.5 kmh 29.77 in1008.1 mb 0.00 in0.0 mm 0.00 in0.0 mm 0.00 in0.0 mm
03:25 AM 44.2°F6.8°C 43.3°F6.3°C 95% 4.5 mph 7.2 kmh 5.4 mph8.7 kmh 29.77 in1008.1 mb 0.00 in0.0 mm 0.00 in0.0 mm 0.00 in0.0 mm
03:20 AM 44.2°F6.8°C 43.3°F6.3°C 95% 2.2 mph 3.5 kmh 6.9 mph11.1 kmh 29.76 in1007.8 mb 0.00 in0.0 mm 0.00 in0.0 mm 0.00 in0.0 mm
03:15 AM 44.2°F6.8°C 43.3°F6.3°C 95% 2.2 mph NE3.5 kmh NE 4.5 mph7.2 kmh 29.76 in1007.8 mb 0.00 in0.0 mm 0.00 in0.0 mm 0.00 in0.0 mm
03:10 AM 44.2°F6.8°C 43.0°F6.1°C 94% 0.7 mph 1.1 kmh 2.2 mph3.5 kmh 29.77 in1008.1 mb 0.00 in0.0 mm 0.00 in0.0 mm 0.00 in0.0 mm
03:05 AM 44.2°F6.8°C 43.0°F6.1°C 94% 2.2 mph NE3.5 kmh NE 4.5 mph7.2 kmh 29.77 in1008.1 mb 0.00 in0.0 mm 0.00 in0.0 mm 0.00 in0.0 mm
03:00 AM 44.4°F6.9°C 43.2°F6.2°C 94% 1.6 mph 2.6 kmh 3.8 mph6.1 kmh 29.76 in1007.8 mb 0.00 in0.0 mm 0.00 in0.0 mm 0.00 in0.0 mm
02:55 AM 44.4°F6.9°C 43.0°F6.1°C 93% 0.7 mph NE1.1 kmh NE 2.2 mph3.5 kmh 29.76 in1007.8 mb 0.00 in0.0 mm 0.00 in0.0 mm 0.00 in0.0 mm
02:50 AM 44.6°F7.0°C 43.0°F6.1°C 92% 2.2 mph NW3.5 kmh NW 3.1 mph5.0 kmh 29.76 in1007.8 mb 0.00 in0.0 mm 0.00 in0.0 mm 0.00 in0.0 mm
02:45 AM 44.8°F7.1°C 43.2°F6.2°C 92% 3.1 mph 5.0 kmh 6.0 mph9.7 kmh 29.76 in1007.8 mb 0.00 in0.0 mm 0.00 in0.0 mm 0.00 in0.0 mm
02:40 AM 44.8°F7.1°C 43.2°F6.2°C 92% 0.7 mph SE1.1 kmh SE 2.2 mph3.5 kmh 29.76 in1007.8 mb 0.00 in0.0 mm 0.00 in0.0 mm 0.00 in0.0 mm
02:35 AM 45.0°F7.2°C 43.1°F6.2°C 91% 0.7 mph 1.1 kmh 1.6 mph2.6 kmh 29.76 in1007.8 mb 0.00 in0.0 mm 0.00 in0.0 mm 0.00 in0.0 mm
02:30 AM 45.1°F7.3°C 43.3°F6.3°C 91% 2.2 mph NE3.5 kmh NE 3.1 mph5.0 kmh 29.76 in1007.8 mb 0.00 in0.0 mm 0.00 in0.0 mm 0.00 in0.0 mm
02:25 AM 45.5°F7.5°C 43.7°F6.5°C 91% 1.6 mph 2.6 kmh 3.1 mph5.0 kmh 29.76 in1007.8 mb 0.00 in0.0 mm 0.00 in0.0 mm 0.00 in0.0 mm
02:20 AM 45.5°F7.5°C 43.7°F6.5°C 91% 1.6 mph 2.6 kmh 3.1 mph5.0 kmh 29.76 in1007.8 mb 0.00 in0.0 mm 0.00 in0.0 mm 0.00 in0.0 mm
02:15 AM 45.7°F7.6°C 43.8°F6.6°C 91% 2.2 mph 3.5 kmh 3.8 mph6.1 kmh 29.77 in1008.1 mb 0.00 in0.0 mm 0.00 in0.0 mm 0.00 in0.0 mm
02:10 AM 45.7°F7.6°C 43.8°F6.6°C 91% 1.6 mph E2.6 kmh E 3.8 mph6.1 kmh 29.76 in1007.8 mb 0.00 in0.0 mm 0.00 in0.0 mm 0.00 in0.0 mm
02:05 AM 45.9°F7.7°C 43.8°F6.6°C 90% 1.6 mph 2.6 kmh 2.2 mph3.5 kmh 29.76 in1007.8 mb 0.00 in0.0 mm 0.00 in0.0 mm 0.00 in0.0 mm
02:00 AM 46.0°F7.8°C 44.0°F6.7°C 90% 2.2 mph 3.5 kmh 3.8 mph6.1 kmh 29.76 in1007.8 mb 0.00 in0.0 mm 0.00 in0.0 mm 0.00 in0.0 mm
01:55 AM 46.0°F7.8°C 44.0°F6.7°C 90% 0.7 mph 1.1 kmh 1.6 mph2.6 kmh 29.76 in1007.8 mb 0.00 in0.0 mm 0.00 in0.0 mm 0.00 in0.0 mm
01:50 AM 46.2°F7.9°C 44.2°F6.8°C 90% 3.1 mph 5.0 kmh 4.5 mph7.2 kmh 29.76 in1007.8 mb 0.00 in0.0 mm 0.00 in0.0 mm 0.00 in0.0 mm
01:45 AM 46.6°F8.1°C 44.3°F6.8°C 89% 1.6 mph NE2.6 kmh NE 2.2 mph3.5 kmh 29.76 in1007.8 mb 0.00 in0.0 mm 0.00 in0.0 mm 0.00 in0.0 mm
01:40 AM 46.6°F8.1°C 44.3°F6.8°C 89% 3.8 mph E6.1 kmh E 4.5 mph7.2 kmh 29.76 in1007.8 mb 0.00 in0.0 mm 0.00 in0.0 mm 0.00 in0.0 mm
01:35 AM 46.8°F8.2°C 44.5°F6.9°C 89% 1.6 mph 2.6 kmh 3.1 mph5.0 kmh 29.75 in1007.5 mb 0.00 in0.0 mm 0.00 in0.0 mm 0.00 in0.0 mm
01:30 AM 46.9°F8.3°C 44.7°F7.1°C 89% 0.7 mph 1.1 kmh 2.2 mph3.5 kmh 29.75 in1007.5 mb 0.00 in0.0 mm 0.00 in0.0 mm 0.00 in0.0 mm
01:25 AM 47.3°F8.5°C 45.0°F7.2°C 89% 2.2 mph 3.5 kmh 3.8 mph6.1 kmh 29.76 in1007.8 mb 0.00 in0.0 mm 0.00 in0.0 mm 0.00 in0.0 mm
01:20 AM 47.5°F8.6°C 45.2°F7.3°C 89% 1.6 mph 2.6 kmh 3.1 mph5.0 kmh 29.75 in1007.5 mb 0.00 in0.0 mm 0.00 in0.0 mm 0.00 in0.0 mm
01:15 AM 47.5°F8.6°C 45.2°F7.3°C 89% 2.2 mph NW3.5 kmh NW 4.5 mph7.2 kmh 29.75 in1007.5 mb 0.00 in0.0 mm 0.00 in0.0 mm 0.00 in0.0 mm
01:10 AM 47.7°F8.7°C 45.4°F7.4°C 89% 1.6 mph NE2.6 kmh NE 3.1 mph5.0 kmh 29.75 in1007.5 mb 0.00 in0.0 mm 0.00 in0.0 mm 0.00 in0.0 mm
01:05 AM 47.7°F8.7°C 45.4°F7.4°C 89% 3.1 mph E5.0 kmh E 4.5 mph7.2 kmh 29.75 in1007.5 mb 0.00 in0.0 mm 0.00 in0.0 mm 0.00 in0.0 mm
01:00 AM 47.7°F8.7°C 45.4°F7.4°C 89% 2.2 mph NE3.5 kmh NE 3.8 mph6.1 kmh 29.74 in1007.1 mb 0.00 in0.0 mm 0.00 in0.0 mm 0.00 in0.0 mm
12:55 AM 47.8°F8.8°C 45.5°F7.5°C 89% 3.8 mph WNW6.1 kmh WNW 6.9 mph11.1 kmh 29.75 in1007.5 mb 0.00 in0.0 mm 0.00 in0.0 mm 0.00 in0.0 mm
12:50 AM 47.8°F8.8°C 45.8°F7.7°C 90% 0.7 mph NW1.1 kmh NW 2.2 mph3.5 kmh 29.75 in1007.5 mb 0.00 in0.0 mm 0.00 in0.0 mm 0.00 in0.0 mm
12:45 AM 47.8°F8.8°C 45.8°F7.7°C 90% 2.2 mph NW3.5 kmh NW 3.8 mph6.1 kmh 29.74 in1007.1 mb 0.00 in0.0 mm 0.00 in0.0 mm 0.00 in0.0 mm
12:40 AM 47.8°F8.8°C 45.8°F7.7°C 90% 3.8 mph 6.1 kmh 6.0 mph9.7 kmh 29.74 in1007.1 mb 0.00 in0.0 mm 0.00 in0.0 mm 0.00 in0.0 mm
12:35 AM 48.0°F8.9°C 45.9°F7.7°C 90% 1.6 mph S2.6 kmh S 3.1 mph5.0 kmh 29.74 in1007.1 mb 0.00 in0.0 mm 0.00 in0.0 mm 0.00 in0.0 mm
12:30 AM 48.0°F8.9°C 45.7°F7.6°C 89% 2.2 mph 3.5 kmh 3.8 mph6.1 kmh 29.74 in1007.1 mb 0.00 in0.0 mm 0.00 in0.0 mm 0.00 in0.0 mm
12:25 AM 48.2°F9.0°C 45.7°F7.6°C 88% 3.1 mph S5.0 kmh S 4.5 mph7.2 kmh 29.74 in1007.1 mb 0.00 in0.0 mm 0.00 in0.0 mm 0.00 in0.0 mm
12:20 AM 48.6°F9.2°C 46.0°F7.8°C 88% 3.1 mph NW5.0 kmh NW 6.0 mph9.7 kmh 29.74 in1007.1 mb 0.00 in0.0 mm 0.00 in0.0 mm 0.00 in0.0 mm
12:15 AM 48.7°F9.3°C 46.2°F7.9°C 88% 2.2 mph 3.5 kmh 5.4 mph8.7 kmh 29.74 in1007.1 mb 0.00 in0.0 mm 0.00 in0.0 mm 0.00 in0.0 mm
12:10 AM 48.9°F9.4°C 46.4°F8.0°C 88% 3.1 mph 5.0 kmh 5.4 mph8.7 kmh 29.74 in1007.1 mb 0.00 in0.0 mm 0.00 in0.0 mm 0.00 in0.0 mm
12:05 AM 48.7°F9.3°C 46.4°F8.0°C 89% 3.1 mph NE5.0 kmh NE 6.0 mph9.7 kmh 29.73 in1006.8 mb 0.00 in0.0 mm 0.00 in0.0 mm 0.00 in0.0 mm
12:00 AM 48.9°F9.4°C 46.6°F8.1°C 89% 3.8 mph NE6.1 kmh NE 6.0 mph9.7 kmh 29.73 in1006.8 mb 0.00 in0.0 mm 0.00 in0.0 mm 0.00 in0.0 mm